Startpagina
METAR-TAF:

METAR-TAF

Vliegvelden :

Internationale luchthaven van Nouakchott

Nouakchott, Mauritanië

breedte: 18-18-36N, lengte: 015-58-11W, hoogte: 3 m

Actueel weer

Dit bericht is 54 minuten geleden gemaakt, om 07:30 UTC
Wind 8 kt uit het noorden
Temperatuur 23°C
Vochtigheid 69%
Druk 1011 hPa
Zicht 10 km of meer
geen wolken onder 1500 m en geen cumulonimbus

METAR: GQNO 200730Z 36008KT CAVOK 23/17 Q1011 NOSIG

Tijdstip: 08:24 (08:24 UTC)

Verwachting

Dit bericht is 3 uur en het 24 minuten geleden gemaakt, om 05:00 UTC
Verwachting geldig van 20 om 06 UTC tot 21 om 12 UTC
Wind 6 kt uit het noorden
Zicht: 7000 m
Wijzigt naar
van 20 om 08 UTC tot 20 om 10 UTC
Wind 10 kt uit het oostnoordoosten
Wijzigt naar
van 20 om 15 UTC tot 20 om 17 UTC
Wind 13 kt uit het noorden
Tijdelijke
van 21 om 09 UTC tot 21 om 12 UTC
Wind 14 kt uit het oosten
Zicht: 3000 m
Stuifzand

TAF: GQNO 200500Z 2006/2112 35006KT 7000 NSC BECMG 2008/2010 06010KT BECMG 2015/2017 36013KT TEMPO 2109/2112 08014KT 3000 BLSA

Waarnemingen en weersverwachtingen van meer dan 4000 vliegvelden (METAR en TAF).

De beschikbare stations zijn de gele en rode punten op de kaart.

Ga met uw muis naar het station om de naam te zien.

Klik dan om waarnemingen en weersverwachtingen te zien.

kaart wijzigen: klik op de groene knoppen met een zwart kruis om in te zoomen, op de groene knop met een streepje om uit te zoomen of op de groene pijlen voor aangrenzende kaarten.


METAR-TAF: